sensor_id;sensor_type;location;lat;lon;timestamp;P1;durP1;ratioP1;P2;durP2;ratioP2
23328;SDS011;11836;51.050;3.716;2023-06-05T00:05:20;1.08;;;0.98;;
23328;SDS011;11836;51.050;3.716;2023-06-05T00:07:46;1.90;;;0.95;;
23328;SDS011;11836;51.050;3.716;2023-06-05T00:10:12;1.65;;;1.00;;
23328;SDS011;11836;51.050;3.716;2023-06-05T00:12:56;1.70;;;0.95;;
23328;SDS011;11836;51.050;3.716;2023-06-05T00:15:22;1.55;;;0.90;;
23328;SDS011;11836;51.050;3.716;2023-06-05T00:17:47;1.40;;;1.08;;
23328;SDS011;11836;51.050;3.716;2023-06-05T00:20:13;1.00;;;0.90;;
23328;SDS011;11836;51.050;3.716;2023-06-05T00:22:39;1.38;;;1.05;;
23328;SDS011;11836;51.050;3.716;2023-06-05T00:25:05;2.20;;;0.90;;
23328;SDS011;11836;51.050;3.716;2023-06-05T00:30:49;1.17;;;1.08;;
23328;SDS011;11836;51.050;3.716;2023-06-05T00:33:14;2.05;;;1.20;;
23328;SDS011;11836;51.050;3.716;2023-06-05T00:35:40;3.88;;;1.35;;
23328;SDS011;11836;51.050;3.716;2023-06-05T00:38:09;1.67;;;1.00;;
23328;SDS011;11836;51.050;3.716;2023-06-05T00:40:37;2.05;;;0.93;;
23328;SDS011;11836;51.050;3.716;2023-06-05T00:43:02;1.70;;;1.13;;
23328;SDS011;11836;51.050;3.716;2023-06-05T00:45:30;0.98;;;0.85;;
23328;SDS011;11836;51.050;3.716;2023-06-05T00:48:09;2.40;;;1.17;;
23328;SDS011;11836;51.050;3.716;2023-06-05T00:50:35;1.73;;;1.00;;
23328;SDS011;11836;51.050;3.716;2023-06-05T00:53:02;1.17;;;0.82;;
23328;SDS011;11836;51.050;3.716;2023-06-05T00:55:30;1.33;;;0.90;;
23328;SDS011;11836;51.050;3.716;2023-06-05T00:57:56;1.90;;;1.10;;
23328;SDS011;11836;51.050;3.716;2023-06-05T01:00:22;1.92;;;1.10;;
23328;SDS011;11836;51.050;3.716;2023-06-05T01:02:48;2.33;;;1.20;;
23328;SDS011;11836;51.050;3.716;2023-06-05T01:05:18;1.77;;;1.10;;
23328;SDS011;11836;51.050;3.716;2023-06-05T01:07:44;1.25;;;0.82;;
23328;SDS011;11836;51.050;3.716;2023-06-05T01:10:13;1.63;;;1.00;;
23328;SDS011;11836;51.050;3.716;2023-06-05T01:15:41;2.65;;;0.95;;
23328;SDS011;11836;51.050;3.716;2023-06-05T01:18:06;1.80;;;1.23;;
23328;SDS011;11836;51.050;3.716;2023-06-05T01:20:35;2.72;;;1.17;;
23328;SDS011;11836;51.050;3.716;2023-06-05T01:23:06;1.48;;;1.20;;
23328;SDS011;11836;51.050;3.716;2023-06-05T01:25:35;3.40;;;1.38;;
23328;SDS011;11836;51.050;3.716;2023-06-05T01:28:17;0.80;;;0.80;;
23328;SDS011;11836;51.050;3.716;2023-06-05T01:31:08;1.35;;;1.10;;
23328;SDS011;11836;51.050;3.716;2023-06-05T01:33:44;1.52;;;1.10;;
23328;SDS011;11836;51.050;3.716;2023-06-05T01:36:15;1.38;;;0.93;;
23328;SDS011;11836;51.050;3.716;2023-06-05T01:38:44;2.05;;;1.20;;
23328;SDS011;11836;51.050;3.716;2023-06-05T01:44:06;1.88;;;1.25;;
23328;SDS011;11836;51.050;3.716;2023-06-05T01:46:33;2.95;;;1.30;;
23328;SDS011;11836;51.050;3.716;2023-06-05T01:49:00;1.77;;;1.00;;
23328;SDS011;11836;51.050;3.716;2023-06-05T01:54:15;2.08;;;1.10;;
23328;SDS011;11836;51.050;3.716;2023-06-05T01:56:43;1.27;;;0.93;;
23328;SDS011;11836;51.050;3.716;2023-06-05T01:59:09;1.52;;;1.20;;
23328;SDS011;11836;51.050;3.716;2023-06-05T02:01:36;1.98;;;1.30;;
23328;SDS011;11836;51.050;3.716;2023-06-05T02:04:02;2.03;;;1.58;;
23328;SDS011;11836;51.050;3.716;2023-06-05T02:09:09;1.42;;;1.13;;
23328;SDS011;11836;51.050;3.716;2023-06-05T02:11:36;1.65;;;1.30;;
23328;SDS011;11836;51.050;3.716;2023-06-05T02:14:03;1.80;;;1.23;;
23328;SDS011;11836;51.050;3.716;2023-06-05T02:16:31;1.40;;;1.20;;
23328;SDS011;11836;51.050;3.716;2023-06-05T02:19:00;1.30;;;1.20;;
23328;SDS011;11836;51.050;3.716;2023-06-05T02:21:28;2.20;;;1.35;;
23328;SDS011;11836;51.050;3.716;2023-06-05T02:27:10;4.28;;;1.75;;
23328;SDS011;11836;51.050;3.716;2023-06-05T02:29:37;2.30;;;0.90;;
23328;SDS011;11836;51.050;3.716;2023-06-05T02:32:03;1.45;;;1.00;;
23328;SDS011;11836;51.050;3.716;2023-06-05T02:34:31;1.60;;;1.20;;
23328;SDS011;11836;51.050;3.716;2023-06-05T02:36:59;1.70;;;0.95;;
23328;SDS011;11836;51.050;3.716;2023-06-05T02:39:25;2.20;;;1.25;;
23328;SDS011;11836;51.050;3.716;2023-06-05T02:44:24;1.88;;;1.02;;
23328;SDS011;11836;51.050;3.716;2023-06-05T02:46:51;3.45;;;1.70;;
23328;SDS011;11836;51.050;3.716;2023-06-05T02:49:16;2.25;;;1.15;;
23328;SDS011;11836;51.050;3.716;2023-06-05T02:54:42;1.17;;;1.00;;
23328;SDS011;11836;51.050;3.716;2023-06-05T02:59:33;1.98;;;1.20;;
23328;SDS011;11836;51.050;3.716;2023-06-05T03:05:25;1.73;;;1.20;;
23328;SDS011;11836;51.050;3.716;2023-06-05T03:07:52;2.08;;;1.48;;
23328;SDS011;11836;51.050;3.716;2023-06-05T03:10:19;1.40;;;1.20;;
23328;SDS011;11836;51.050;3.716;2023-06-05T03:12:46;2.28;;;1.45;;
23328;SDS011;11836;51.050;3.716;2023-06-05T03:15:12;1.92;;;1.65;;
23328;SDS011;11836;51.050;3.716;2023-06-05T03:21:00;1.25;;;1.10;;
23328;SDS011;11836;51.050;3.716;2023-06-05T03:23:26;1.65;;;1.00;;
23328;SDS011;11836;51.050;3.716;2023-06-05T03:25:52;1.27;;;1.00;;
23328;SDS011;11836;51.050;3.716;2023-06-05T03:28:25;2.63;;;1.48;;
23328;SDS011;11836;51.050;3.716;2023-06-05T03:30:55;1.23;;;1.13;;
23328;SDS011;11836;51.050;3.716;2023-06-05T03:36:27;1.85;;;1.30;;
23328;SDS011;11836;51.050;3.716;2023-06-05T03:38:54;2.40;;;1.58;;
23328;SDS011;11836;51.050;3.716;2023-06-05T03:44:18;2.10;;;1.35;;
23328;SDS011;11836;51.050;3.716;2023-06-05T03:46:50;3.65;;;1.98;;
23328;SDS011;11836;51.050;3.716;2023-06-05T03:49:15;2.50;;;1.30;;
23328;SDS011;11836;51.050;3.716;2023-06-05T03:51:41;1.92;;;1.40;;
23328;SDS011;11836;51.050;3.716;2023-06-05T03:54:09;2.38;;;1.35;;
23328;SDS011;11836;51.050;3.716;2023-06-05T03:56:38;3.90;;;1.38;;
23328;SDS011;11836;51.050;3.716;2023-06-05T04:01:36;2.65;;;1.75;;
23328;SDS011;11836;51.050;3.716;2023-06-05T04:04:03;1.65;;;1.20;;
23328;SDS011;11836;51.050;3.716;2023-06-05T04:09:31;1.60;;;1.00;;
23328;SDS011;11836;51.050;3.716;2023-06-05T04:14:47;1.27;;;1.10;;
23328;SDS011;11836;51.050;3.716;2023-06-05T04:17:13;3.17;;;1.30;;
23328;SDS011;11836;51.050;3.716;2023-06-05T04:19:39;3.08;;;1.48;;
23328;SDS011;11836;51.050;3.716;2023-06-05T04:22:05;1.77;;;1.38;;
23328;SDS011;11836;51.050;3.716;2023-06-05T04:24:31;2.05;;;1.38;;
23328;SDS011;11836;51.050;3.716;2023-06-05T04:26:57;1.13;;;1.02;;
23328;SDS011;11836;51.050;3.716;2023-06-05T04:32:20;1.40;;;1.15;;
23328;SDS011;11836;51.050;3.716;2023-06-05T04:34:46;2.10;;;1.40;;
23328;SDS011;11836;51.050;3.716;2023-06-05T04:37:12;1.42;;;1.10;;
23328;SDS011;11836;51.050;3.716;2023-06-05T04:39:38;1.48;;;1.10;;
23328;SDS011;11836;51.050;3.716;2023-06-05T04:42:04;1.98;;;1.42;;
23328;SDS011;11836;51.050;3.716;2023-06-05T04:44:30;2.15;;;1.27;;
23328;SDS011;11836;51.050;3.716;2023-06-05T04:47:06;2.42;;;1.17;;
23328;SDS011;11836;51.050;3.716;2023-06-05T04:49:33;1.40;;;1.30;;
23328;SDS011;11836;51.050;3.716;2023-06-05T04:51:58;3.25;;;1.40;;
23328;SDS011;11836;51.050;3.716;2023-06-05T04:54:24;1.10;;;1.00;;
23328;SDS011;11836;51.050;3.716;2023-06-05T04:56:50;1.45;;;1.20;;
23328;SDS011;11836;51.050;3.716;2023-06-05T04:59:17;1.77;;;1.30;;
23328;SDS011;11836;51.050;3.716;2023-06-05T05:01:43;3.42;;;1.20;;
23328;SDS011;11836;51.050;3.716;2023-06-05T05:04:09;0.88;;;0.85;;
23328;SDS011;11836;51.050;3.716;2023-06-05T05:06:36;2.03;;;1.20;;
23328;SDS011;11836;51.050;3.716;2023-06-05T05:09:03;1.42;;;1.33;;
23328;SDS011;11836;51.050;3.716;2023-06-05T05:11:29;1.10;;;1.00;;
23328;SDS011;11836;51.050;3.716;2023-06-05T05:13:56;1.90;;;1.02;;
23328;SDS011;11836;51.050;3.716;2023-06-05T05:16:22;1.90;;;1.17;;
23328;SDS011;11836;51.050;3.716;2023-06-05T05:18:47;1.88;;;1.45;;
23328;SDS011;11836;51.050;3.716;2023-06-05T05:21:13;2.20;;;1.40;;
23328;SDS011;11836;51.050;3.716;2023-06-05T05:23:39;2.97;;;1.80;;
23328;SDS011;11836;51.050;3.716;2023-06-05T05:26:04;3.22;;;1.20;;
23328;SDS011;11836;51.050;3.716;2023-06-05T05:28:32;3.45;;;1.52;;
23328;SDS011;11836;51.050;3.716;2023-06-05T05:30:57;2.05;;;1.33;;
23328;SDS011;11836;51.050;3.716;2023-06-05T05:33:23;1.80;;;1.27;;
23328;SDS011;11836;51.050;3.716;2023-06-05T05:35:49;1.80;;;1.30;;
23328;SDS011;11836;51.050;3.716;2023-06-05T05:38:15;3.10;;;1.35;;
23328;SDS011;11836;51.050;3.716;2023-06-05T05:40:41;1.23;;;1.02;;
23328;SDS011;11836;51.050;3.716;2023-06-05T05:43:06;1.90;;;1.00;;
23328;SDS011;11836;51.050;3.716;2023-06-05T05:45:33;1.33;;;1.15;;
23328;SDS011;11836;51.050;3.716;2023-06-05T05:47:59;2.22;;;1.00;;
23328;SDS011;11836;51.050;3.716;2023-06-05T05:50:24;1.10;;;1.02;;
23328;SDS011;11836;51.050;3.716;2023-06-05T05:52:52;1.92;;;1.25;;
23328;SDS011;11836;51.050;3.716;2023-06-05T05:55:21;1.33;;;1.00;;
23328;SDS011;11836;51.050;3.716;2023-06-05T06:00:46;1.17;;;1.02;;
23328;SDS011;11836;51.050;3.716;2023-06-05T06:03:12;1.92;;;1.20;;
23328;SDS011;11836;51.050;3.716;2023-06-05T06:05:40;1.17;;;1.00;;
23328;SDS011;11836;51.050;3.716;2023-06-05T06:08:06;1.60;;;1.10;;
23328;SDS011;11836;51.050;3.716;2023-06-05T06:10:32;1.55;;;1.00;;
23328;SDS011;11836;51.050;3.716;2023-06-05T06:12:58;1.30;;;0.90;;
23328;SDS011;11836;51.050;3.716;2023-06-05T06:15:25;1.40;;;1.05;;
23328;SDS011;11836;51.050;3.716;2023-06-05T06:20:30;1.33;;;1.05;;
23328;SDS011;11836;51.050;3.716;2023-06-05T06:25:30;1.67;;;1.17;;
23328;SDS011;11836;51.050;3.716;2023-06-05T06:27:56;1.02;;;0.90;;
23328;SDS011;11836;51.050;3.716;2023-06-05T06:30:25;1.50;;;0.93;;
23328;SDS011;11836;51.050;3.716;2023-06-05T06:32:52;1.20;;;1.10;;
23328;SDS011;11836;51.050;3.716;2023-06-05T06:35:22;2.65;;;1.10;;
23328;SDS011;11836;51.050;3.716;2023-06-05T06:37:49;2.17;;;1.05;;
23328;SDS011;11836;51.050;3.716;2023-06-05T06:40:18;1.05;;;0.80;;
23328;SDS011;11836;51.050;3.716;2023-06-05T06:42:44;1.10;;;1.00;;
23328;SDS011;11836;51.050;3.716;2023-06-05T06:45:10;1.55;;;1.17;;
23328;SDS011;11836;51.050;3.716;2023-06-05T06:47:37;1.73;;;1.10;;
23328;SDS011;11836;51.050;3.716;2023-06-05T06:50:02;1.23;;;1.00;;
23328;SDS011;11836;51.050;3.716;2023-06-05T06:52:28;1.23;;;0.93;;
23328;SDS011;11836;51.050;3.716;2023-06-05T06:54:54;1.00;;;0.90;;
23328;SDS011;11836;51.050;3.716;2023-06-05T06:57:21;1.52;;;1.27;;
23328;SDS011;11836;51.050;3.716;2023-06-05T06:59:47;2.10;;;0.82;;
23328;SDS011;11836;51.050;3.716;2023-06-05T07:02:17;1.27;;;0.90;;
23328;SDS011;11836;51.050;3.716;2023-06-05T07:04:44;1.25;;;1.02;;
23328;SDS011;11836;51.050;3.716;2023-06-05T07:07:11;1.63;;;1.05;;
23328;SDS011;11836;51.050;3.716;2023-06-05T07:12:41;2.00;;;1.02;;
23328;SDS011;11836;51.050;3.716;2023-06-05T07:15:07;1.40;;;1.10;;
23328;SDS011;11836;51.050;3.716;2023-06-05T07:17:33;1.67;;;1.30;;
23328;SDS011;11836;51.050;3.716;2023-06-05T07:19:59;1.85;;;1.10;;
23328;SDS011;11836;51.050;3.716;2023-06-05T07:22:27;1.27;;;1.17;;
23328;SDS011;11836;51.050;3.716;2023-06-05T07:24:55;2.33;;;1.02;;
23328;SDS011;11836;51.050;3.716;2023-06-05T07:27:21;1.40;;;1.08;;
23328;SDS011;11836;51.050;3.716;2023-06-05T07:29:47;2.60;;;1.20;;
23328;SDS011;11836;51.050;3.716;2023-06-05T07:32:13;1.10;;;0.98;;
23328;SDS011;11836;51.050;3.716;2023-06-05T07:34:39;1.17;;;0.82;;
23328;SDS011;11836;51.050;3.716;2023-06-05T07:37:07;1.65;;;1.10;;
23328;SDS011;11836;51.050;3.716;2023-06-05T07:39:33;0.90;;;0.90;;
23328;SDS011;11836;51.050;3.716;2023-06-05T07:41:59;1.50;;;0.95;;
23328;SDS011;11836;51.050;3.716;2023-06-05T07:44:28;1.48;;;0.98;;
23328;SDS011;11836;51.050;3.716;2023-06-05T07:46:55;1.65;;;0.90;;
23328;SDS011;11836;51.050;3.716;2023-06-05T07:49:20;1.00;;;0.90;;
23328;SDS011;11836;51.050;3.716;2023-06-05T07:51:51;1.48;;;1.30;;
23328;SDS011;11836;51.050;3.716;2023-06-05T07:54:17;1.27;;;1.10;;
23328;SDS011;11836;51.050;3.716;2023-06-05T07:56:45;2.03;;;1.02;;
23328;SDS011;11836;51.050;3.716;2023-06-05T07:59:14;1.20;;;1.10;;
23328;SDS011;11836;51.050;3.716;2023-06-05T08:01:40;1.02;;;0.88;;
23328;SDS011;11836;51.050;3.716;2023-06-05T08:04:06;1.30;;;1.20;;
23328;SDS011;11836;51.050;3.716;2023-06-05T08:09:06;1.33;;;1.23;;
23328;SDS011;11836;51.050;3.716;2023-06-05T08:11:34;1.77;;;1.20;;
23328;SDS011;11836;51.050;3.716;2023-06-05T08:14:04;1.43;;;1.10;;
23328;SDS011;11836;51.050;3.716;2023-06-05T08:16:31;1.08;;;0.98;;
23328;SDS011;11836;51.050;3.716;2023-06-05T08:18:57;1.20;;;0.90;;
23328;SDS011;11836;51.050;3.716;2023-06-05T08:21:23;1.17;;;1.08;;
23328;SDS011;11836;51.050;3.716;2023-06-05T08:23:49;1.67;;;1.00;;
23328;SDS011;11836;51.050;3.716;2023-06-05T08:26:15;1.42;;;1.10;;
23328;SDS011;11836;51.050;3.716;2023-06-05T08:28:43;1.25;;;1.10;;
23328;SDS011;11836;51.050;3.716;2023-06-05T08:31:08;1.08;;;0.98;;
23328;SDS011;11836;51.050;3.716;2023-06-05T08:33:35;1.27;;;1.08;;
23328;SDS011;11836;51.050;3.716;2023-06-05T08:36:02;1.35;;;1.20;;
23328;SDS011;11836;51.050;3.716;2023-06-05T08:38:29;1.45;;;0.90;;
23328;SDS011;11836;51.050;3.716;2023-06-05T08:41:04;1.58;;;1.02;;
23328;SDS011;11836;51.050;3.716;2023-06-05T08:43:38;1.45;;;1.10;;
23328;SDS011;11836;51.050;3.716;2023-06-05T08:46:06;1.38;;;0.90;;
23328;SDS011;11836;51.050;3.716;2023-06-05T08:48:36;1.42;;;1.10;;
23328;SDS011;11836;51.050;3.716;2023-06-05T08:51:16;1.05;;;0.85;;
23328;SDS011;11836;51.050;3.716;2023-06-05T08:56:18;1.80;;;1.13;;
23328;SDS011;11836;51.050;3.716;2023-06-05T09:01:23;2.90;;;1.00;;
23328;SDS011;11836;51.050;3.716;2023-06-05T09:03:55;2.00;;;1.20;;
23328;SDS011;11836;51.050;3.716;2023-06-05T09:06:24;1.98;;;0.98;;
23328;SDS011;11836;51.050;3.716;2023-06-05T09:08:53;1.77;;;1.35;;
23328;SDS011;11836;51.050;3.716;2023-06-05T09:11:29;1.48;;;1.00;;
23328;SDS011;11836;51.050;3.716;2023-06-05T09:14:11;2.13;;;1.40;;
23328;SDS011;11836;51.050;3.716;2023-06-05T09:16:38;2.00;;;1.08;;
23328;SDS011;11836;51.050;3.716;2023-06-05T09:21:39;1.95;;;0.90;;
23328;SDS011;11836;51.050;3.716;2023-06-05T09:26:55;2.58;;;1.40;;
23328;SDS011;11836;51.050;3.716;2023-06-05T09:29:29;1.23;;;1.13;;
23328;SDS011;11836;51.050;3.716;2023-06-05T09:32:03;1.15;;;1.00;;
23328;SDS011;11836;51.050;3.716;2023-06-05T09:34:32;1.27;;;1.17;;
23328;SDS011;11836;51.050;3.716;2023-06-05T09:37:13;1.85;;;1.25;;
23328;SDS011;11836;51.050;3.716;2023-06-05T09:43:16;2.15;;;0.98;;
23328;SDS011;11836;51.050;3.716;2023-06-05T09:45:49;1.45;;;1.08;;
23328;SDS011;11836;51.050;3.716;2023-06-05T09:48:22;1.83;;;1.35;;
23328;SDS011;11836;51.050;3.716;2023-06-05T09:51:13;1.77;;;1.45;;
23328;SDS011;11836;51.050;3.716;2023-06-05T09:53:50;1.55;;;1.30;;
23328;SDS011;11836;51.050;3.716;2023-06-05T10:00:00;2.22;;;1.27;;
23328;SDS011;11836;51.050;3.716;2023-06-05T10:02:33;1.60;;;1.05;;
23328;SDS011;11836;51.050;3.716;2023-06-05T10:07:36;1.40;;;1.30;;
23328;SDS011;11836;51.050;3.716;2023-06-05T10:10:05;1.25;;;1.10;;
23328;SDS011;11836;51.050;3.716;2023-06-05T10:12:45;1.75;;;1.20;;
23328;SDS011;11836;51.050;3.716;2023-06-05T10:15:21;1.90;;;1.40;;
23328;SDS011;11836;51.050;3.716;2023-06-05T10:21:05;2.42;;;1.17;;
23328;SDS011;11836;51.050;3.716;2023-06-05T10:39:52;2.05;;;1.13;;
23328;SDS011;11836;51.050;3.716;2023-06-05T10:43:14;1.60;;;1.30;;
23328;SDS011;11836;51.050;3.716;2023-06-05T10:49:51;2.15;;;1.13;;
23328;SDS011;11836;51.050;3.716;2023-06-05T11:00:04;2.55;;;1.20;;
23328;SDS011;11836;51.050;3.716;2023-06-05T11:02:43;3.00;;;1.33;;
23328;SDS011;11836;51.050;3.716;2023-06-05T11:12:05;1.23;;;0.93;;
23328;SDS011;11836;51.050;3.716;2023-06-05T11:15:05;1.33;;;1.20;;
23328;SDS011;11836;51.050;3.716;2023-06-05T11:24:25;1.58;;;1.30;;
23328;SDS011;11836;51.050;3.716;2023-06-05T11:27:07;2.70;;;1.23;;
23328;SDS011;11836;51.050;3.716;2023-06-05T11:33:30;2.60;;;1.17;;
23328;SDS011;11836;51.050;3.716;2023-06-05T11:36:29;2.67;;;1.23;;
23328;SDS011;11836;51.050;3.716;2023-06-05T11:39:52;2.10;;;1.58;;
23328;SDS011;11836;51.050;3.716;2023-06-05T11:42:33;2.42;;;1.40;;
23328;SDS011;11836;51.050;3.716;2023-06-05T11:45:12;1.23;;;1.13;;
23328;SDS011;11836;51.050;3.716;2023-06-05T11:47:48;1.85;;;1.15;;
23328;SDS011;11836;51.050;3.716;2023-06-05T11:50:19;1.33;;;1.20;;
23328;SDS011;11836;51.050;3.716;2023-06-05T11:52:50;2.75;;;1.30;;
23328;SDS011;11836;51.050;3.716;2023-06-05T11:55:16;2.25;;;1.20;;
23328;SDS011;11836;51.050;3.716;2023-06-05T11:57:47;1.60;;;1.27;;
23328;SDS011;11836;51.050;3.716;2023-06-05T12:00:22;2.38;;;1.25;;
23328;SDS011;11836;51.050;3.716;2023-06-05T12:02:48;1.40;;;1.30;;
23328;SDS011;11836;51.050;3.716;2023-06-05T12:05:15;1.85;;;1.25;;
23328;SDS011;11836;51.050;3.716;2023-06-05T12:07:40;1.48;;;1.00;;
23328;SDS011;11836;51.050;3.716;2023-06-05T12:10:07;1.40;;;1.13;;
23328;SDS011;11836;51.050;3.716;2023-06-05T12:12:55;1.38;;;1.27;;
23328;SDS011;11836;51.050;3.716;2023-06-05T12:15:20;3.17;;;1.40;;
23328;SDS011;11836;51.050;3.716;2023-06-05T12:17:50;1.65;;;1.50;;
23328;SDS011;11836;51.050;3.716;2023-06-05T12:22:42;3.45;;;1.52;;
23328;SDS011;11836;51.050;3.716;2023-06-05T12:25:18;1.73;;;1.30;;
23328;SDS011;11836;51.050;3.716;2023-06-05T12:27:44;2.95;;;1.20;;
23328;SDS011;11836;51.050;3.716;2023-06-05T12:30:11;2.55;;;1.30;;
23328;SDS011;11836;51.050;3.716;2023-06-05T12:32:41;1.58;;;1.35;;
23328;SDS011;11836;51.050;3.716;2023-06-05T12:35:20;2.28;;;1.38;;
23328;SDS011;11836;51.050;3.716;2023-06-05T12:37:47;1.92;;;1.42;;
23328;SDS011;11836;51.050;3.716;2023-06-05T12:40:14;2.42;;;1.40;;
23328;SDS011;11836;51.050;3.716;2023-06-05T12:42:42;3.28;;;1.52;;
23328;SDS011;11836;51.050;3.716;2023-06-05T12:45:08;2.75;;;1.40;;
23328;SDS011;11836;51.050;3.716;2023-06-05T12:47:37;1.13;;;1.02;;
23328;SDS011;11836;51.050;3.716;2023-06-05T12:50:03;1.63;;;1.33;;
23328;SDS011;11836;51.050;3.716;2023-06-05T12:52:30;1.90;;;1.40;;
23328;SDS011;11836;51.050;3.716;2023-06-05T12:54:56;2.30;;;1.40;;
23328;SDS011;11836;51.050;3.716;2023-06-05T12:57:25;2.15;;;1.40;;
23328;SDS011;11836;51.050;3.716;2023-06-05T12:59:52;2.10;;;1.60;;
23328;SDS011;11836;51.050;3.716;2023-06-05T13:02:19;2.05;;;1.35;;
23328;SDS011;11836;51.050;3.716;2023-06-05T13:04:45;2.30;;;1.65;;
23328;SDS011;11836;51.050;3.716;2023-06-05T13:07:11;2.28;;;1.48;;
23328;SDS011;11836;51.050;3.716;2023-06-05T13:09:37;3.10;;;1.60;;
23328;SDS011;11836;51.050;3.716;2023-06-05T13:12:03;1.95;;;1.30;;
23328;SDS011;11836;51.050;3.716;2023-06-05T13:14:30;2.42;;;1.50;;
23328;SDS011;11836;51.050;3.716;2023-06-05T13:16:57;3.97;;;1.92;;
23328;SDS011;11836;51.050;3.716;2023-06-05T13:19:23;2.40;;;1.63;;
23328;SDS011;11836;51.050;3.716;2023-06-05T13:21:50;2.22;;;1.60;;
23328;SDS011;11836;51.050;3.716;2023-06-05T13:24:16;1.75;;;1.35;;
23328;SDS011;11836;51.050;3.716;2023-06-05T13:26:42;1.77;;;1.33;;
23328;SDS011;11836;51.050;3.716;2023-06-05T13:29:11;2.35;;;1.48;;
23328;SDS011;11836;51.050;3.716;2023-06-05T13:31:37;3.37;;;1.70;;
23328;SDS011;11836;51.050;3.716;2023-06-05T13:34:03;2.10;;;1.50;;
23328;SDS011;11836;51.050;3.716;2023-06-05T13:36:28;2.60;;;1.40;;
23328;SDS011;11836;51.050;3.716;2023-06-05T13:38:54;1.92;;;1.10;;
23328;SDS011;11836;51.050;3.716;2023-06-05T13:41:20;3.97;;;1.80;;
23328;SDS011;11836;51.050;3.716;2023-06-05T13:43:46;3.47;;;2.13;;
23328;SDS011;11836;51.050;3.716;2023-06-05T13:46:12;2.28;;;1.60;;
23328;SDS011;11836;51.050;3.716;2023-06-05T13:48:38;2.53;;;1.23;;
23328;SDS011;11836;51.050;3.716;2023-06-05T13:51:06;1.58;;;1.40;;
23328;SDS011;11836;51.050;3.716;2023-06-05T13:53:31;1.50;;;1.40;;
23328;SDS011;11836;51.050;3.716;2023-06-05T13:56:05;2.45;;;1.55;;
23328;SDS011;11836;51.050;3.716;2023-06-05T13:58:31;2.42;;;1.80;;
23328;SDS011;11836;51.050;3.716;2023-06-05T14:00:57;1.73;;;1.60;;
23328;SDS011;11836;51.050;3.716;2023-06-05T14:03:24;2.38;;;1.65;;
23328;SDS011;11836;51.050;3.716;2023-06-05T14:05:50;1.52;;;1.30;;
23328;SDS011;11836;51.050;3.716;2023-06-05T14:08:16;2.08;;;1.88;;
23328;SDS011;11836;51.050;3.716;2023-06-05T14:10:41;4.72;;;2.92;;
23328;SDS011;11836;51.050;3.716;2023-06-05T14:13:07;2.22;;;1.80;;
23328;SDS011;11836;51.050;3.716;2023-06-05T14:15:33;3.22;;;2.35;;
23328;SDS011;11836;51.050;3.716;2023-06-05T14:18:00;3.58;;;1.67;;
23328;SDS011;11836;51.050;3.716;2023-06-05T14:20:34;3.83;;;2.22;;
23328;SDS011;11836;51.050;3.716;2023-06-05T14:22:59;9.95;;;4.55;;
23328;SDS011;11836;51.050;3.716;2023-06-05T14:25:27;15.73;;;6.78;;
23328;SDS011;11836;51.050;3.716;2023-06-05T14:27:54;11.70;;;5.43;;
23328;SDS011;11836;51.050;3.716;2023-06-05T14:30:21;11.32;;;5.50;;
23328;SDS011;11836;51.050;3.716;2023-06-05T14:32:48;7.30;;;4.55;;
23328;SDS011;11836;51.050;3.716;2023-06-05T14:35:29;9.15;;;5.57;;
23328;SDS011;11836;51.050;3.716;2023-06-05T14:37:55;7.15;;;4.05;;
23328;SDS011;11836;51.050;3.716;2023-06-05T14:40:20;9.40;;;4.47;;
23328;SDS011;11836;51.050;3.716;2023-06-05T14:48:47;10.63;;;4.68;;
23328;SDS011;11836;51.050;3.716;2023-06-05T14:51:13;7.78;;;4.18;;
23328;SDS011;11836;51.050;3.716;2023-06-05T14:53:54;6.45;;;4.68;;
23328;SDS011;11836;51.050;3.716;2023-06-05T14:56:19;8.00;;;4.32;;
23328;SDS011;11836;51.050;3.716;2023-06-05T14:58:46;6.30;;;4.05;;
23328;SDS011;11836;51.050;3.716;2023-06-05T15:01:30;6.57;;;4.40;;
23328;SDS011;11836;51.050;3.716;2023-06-05T15:03:56;9.90;;;4.20;;
23328;SDS011;11836;51.050;3.716;2023-06-05T15:06:26;8.63;;;4.35;;
23328;SDS011;11836;51.050;3.716;2023-06-05T15:09:11;5.72;;;3.50;;
23328;SDS011;11836;51.050;3.716;2023-06-05T15:11:52;12.23;;;3.45;;
23328;SDS011;11836;51.050;3.716;2023-06-05T15:14:27;5.55;;;3.90;;
23328;SDS011;11836;51.050;3.716;2023-06-05T15:16:53;9.13;;;3.28;;
23328;SDS011;11836;51.050;3.716;2023-06-05T15:19:19;7.75;;;4.45;;
23328;SDS011;11836;51.050;3.716;2023-06-05T15:21:45;9.13;;;4.40;;
23328;SDS011;11836;51.050;3.716;2023-06-05T15:24:10;7.57;;;4.10;;
23328;SDS011;11836;51.050;3.716;2023-06-05T15:26:36;6.03;;;4.07;;
23328;SDS011;11836;51.050;3.716;2023-06-05T15:29:05;9.02;;;5.45;;
23328;SDS011;11836;51.050;3.716;2023-06-05T15:31:36;11.52;;;4.70;;
23328;SDS011;11836;51.050;3.716;2023-06-05T15:34:04;11.05;;;4.50;;
23328;SDS011;11836;51.050;3.716;2023-06-05T15:39:56;8.18;;;4.10;;
23328;SDS011;11836;51.050;3.716;2023-06-05T15:43:16;5.53;;;2.58;;
23328;SDS011;11836;51.050;3.716;2023-06-05T15:46:26;3.95;;;1.95;;
23328;SDS011;11836;51.050;3.716;2023-06-05T15:49:01;3.58;;;2.15;;
23328;SDS011;11836;51.050;3.716;2023-06-05T15:51:53;4.78;;;2.05;;
23328;SDS011;11836;51.050;3.716;2023-06-05T15:54:45;4.82;;;2.40;;
23328;SDS011;11836;51.050;3.716;2023-06-05T15:57:15;4.22;;;2.28;;
23328;SDS011;11836;51.050;3.716;2023-06-05T15:59:41;5.45;;;2.13;;
23328;SDS011;11836;51.050;3.716;2023-06-05T16:02:10;4.70;;;2.40;;
23328;SDS011;11836;51.050;3.716;2023-06-05T16:04:38;4.70;;;2.28;;
23328;SDS011;11836;51.050;3.716;2023-06-05T16:07:04;4.00;;;1.70;;
23328;SDS011;11836;51.050;3.716;2023-06-05T16:09:40;3.22;;;2.10;;
23328;SDS011;11836;51.050;3.716;2023-06-05T16:12:06;4.55;;;2.25;;
23328;SDS011;11836;51.050;3.716;2023-06-05T16:14:34;5.53;;;1.98;;
23328;SDS011;11836;51.050;3.716;2023-06-05T16:17:09;3.75;;;1.88;;
23328;SDS011;11836;51.050;3.716;2023-06-05T16:19:38;4.28;;;1.95;;
23328;SDS011;11836;51.050;3.716;2023-06-05T16:22:06;4.72;;;1.90;;
23328;SDS011;11836;51.050;3.716;2023-06-05T16:24:32;10.50;;;4.10;;
23328;SDS011;11836;51.050;3.716;2023-06-05T16:27:00;6.22;;;3.70;;
23328;SDS011;11836;51.050;3.716;2023-06-05T16:29:27;9.07;;;3.80;;
23328;SDS011;11836;51.050;3.716;2023-06-05T16:31:58;6.63;;;3.30;;
23328;SDS011;11836;51.050;3.716;2023-06-05T16:34:24;9.65;;;3.67;;
23328;SDS011;11836;51.050;3.716;2023-06-05T16:37:07;12.45;;;4.75;;
23328;SDS011;11836;51.050;3.716;2023-06-05T16:39:40;9.02;;;4.50;;
23328;SDS011;11836;51.050;3.716;2023-06-05T16:42:06;5.90;;;4.00;;
23328;SDS011;11836;51.050;3.716;2023-06-05T16:44:32;8.75;;;3.85;;
23328;SDS011;11836;51.050;3.716;2023-06-05T16:47:00;9.95;;;4.50;;
23328;SDS011;11836;51.050;3.716;2023-06-05T16:49:29;10.95;;;4.22;;
23328;SDS011;11836;51.050;3.716;2023-06-05T16:51:54;5.80;;;3.17;;
23328;SDS011;11836;51.050;3.716;2023-06-05T16:54:29;7.28;;;4.28;;
23328;SDS011;11836;51.050;3.716;2023-06-05T16:57:03;11.63;;;4.05;;
23328;SDS011;11836;51.050;3.716;2023-06-05T16:59:30;12.10;;;4.80;;
23328;SDS011;11836;51.050;3.716;2023-06-05T17:01:59;9.75;;;4.20;;
23328;SDS011;11836;51.050;3.716;2023-06-05T17:04:25;12.02;;;4.32;;
23328;SDS011;11836;51.050;3.716;2023-06-05T17:06:51;13.13;;;5.20;;
23328;SDS011;11836;51.050;3.716;2023-06-05T17:09:17;8.95;;;4.53;;
23328;SDS011;11836;51.050;3.716;2023-06-05T17:11:42;8.50;;;4.28;;
23328;SDS011;11836;51.050;3.716;2023-06-05T17:14:09;7.72;;;4.90;;
23328;SDS011;11836;51.050;3.716;2023-06-05T17:16:35;10.15;;;4.82;;
23328;SDS011;11836;51.050;3.716;2023-06-05T17:19:02;11.50;;;4.70;;
23328;SDS011;11836;51.050;3.716;2023-06-05T17:21:28;10.02;;;4.60;;
23328;SDS011;11836;51.050;3.716;2023-06-05T17:23:54;9.43;;;4.13;;
23328;SDS011;11836;51.050;3.716;2023-06-05T17:26:20;14.15;;;4.13;;
23328;SDS011;11836;51.050;3.716;2023-06-05T17:28:46;10.85;;;3.90;;